sensor_id;sensor_type;location;lat;lon;timestamp;P1;durP1;ratioP1;P2;durP2;ratioP2
18997;SDS011;9632;51.018;4.284;2024-02-14T00:00:05;6.32;;;3.55;;
18997;SDS011;9632;51.018;4.284;2024-02-14T00:02:40;6.82;;;3.80;;
18997;SDS011;9632;51.018;4.284;2024-02-14T00:05:09;10.07;;;3.60;;
18997;SDS011;9632;51.018;4.284;2024-02-14T00:07:36;11.48;;;4.25;;
18997;SDS011;9632;51.018;4.284;2024-02-14T00:10:02;8.77;;;3.60;;
18997;SDS011;9632;51.018;4.284;2024-02-14T00:12:30;5.65;;;3.60;;
18997;SDS011;9632;51.018;4.284;2024-02-14T00:15:00;10.00;;;3.60;;
18997;SDS011;9632;51.018;4.284;2024-02-14T00:17:33;6.50;;;3.50;;
18997;SDS011;9632;51.018;4.284;2024-02-14T00:19:59;6.80;;;3.60;;
18997;SDS011;9632;51.018;4.284;2024-02-14T00:22:25;6.90;;;3.50;;
18997;SDS011;9632;51.018;4.284;2024-02-14T00:24:51;8.43;;;3.85;;
18997;SDS011;9632;51.018;4.284;2024-02-14T00:27:17;8.40;;;3.95;;
18997;SDS011;9632;51.018;4.284;2024-02-14T00:29:43;6.40;;;3.38;;
18997;SDS011;9632;51.018;4.284;2024-02-14T00:32:12;11.23;;;4.03;;
18997;SDS011;9632;51.018;4.284;2024-02-14T00:34:38;8.00;;;3.28;;
18997;SDS011;9632;51.018;4.284;2024-02-14T00:37:03;6.85;;;3.40;;
18997;SDS011;9632;51.018;4.284;2024-02-14T00:39:29;8.68;;;3.72;;
18997;SDS011;9632;51.018;4.284;2024-02-14T00:41:55;6.88;;;3.45;;
18997;SDS011;9632;51.018;4.284;2024-02-14T00:44:21;8.93;;;3.88;;
18997;SDS011;9632;51.018;4.284;2024-02-14T00:46:47;6.43;;;3.40;;
18997;SDS011;9632;51.018;4.284;2024-02-14T00:49:13;9.65;;;3.50;;
18997;SDS011;9632;51.018;4.284;2024-02-14T00:51:39;6.45;;;3.72;;
18997;SDS011;9632;51.018;4.284;2024-02-14T00:54:08;7.75;;;3.33;;
18997;SDS011;9632;51.018;4.284;2024-02-14T00:56:34;9.70;;;3.83;;
18997;SDS011;9632;51.018;4.284;2024-02-14T00:59:01;8.23;;;3.47;;
18997;SDS011;9632;51.018;4.284;2024-02-14T01:01:26;11.63;;;3.85;;
18997;SDS011;9632;51.018;4.284;2024-02-14T01:03:52;7.97;;;3.80;;
18997;SDS011;9632;51.018;4.284;2024-02-14T01:06:18;12.65;;;4.13;;
18997;SDS011;9632;51.018;4.284;2024-02-14T01:08:45;8.23;;;3.78;;
18997;SDS011;9632;51.018;4.284;2024-02-14T01:11:10;8.50;;;4.07;;
18997;SDS011;9632;51.018;4.284;2024-02-14T01:13:36;6.53;;;3.90;;
18997;SDS011;9632;51.018;4.284;2024-02-14T01:16:02;8.25;;;3.70;;
18997;SDS011;9632;51.018;4.284;2024-02-14T01:18:29;7.85;;;3.65;;
18997;SDS011;9632;51.018;4.284;2024-02-14T01:20:55;5.97;;;3.65;;
18997;SDS011;9632;51.018;4.284;2024-02-14T01:23:20;7.53;;;3.75;;
18997;SDS011;9632;51.018;4.284;2024-02-14T01:25:46;6.82;;;3.67;;
18997;SDS011;9632;51.018;4.284;2024-02-14T01:28:12;8.63;;;3.90;;
18997;SDS011;9632;51.018;4.284;2024-02-14T01:30:37;9.32;;;3.72;;
18997;SDS011;9632;51.018;4.284;2024-02-14T01:33:03;9.20;;;4.18;;
18997;SDS011;9632;51.018;4.284;2024-02-14T01:35:29;8.48;;;3.67;;
18997;SDS011;9632;51.018;4.284;2024-02-14T01:37:55;8.20;;;4.00;;
18997;SDS011;9632;51.018;4.284;2024-02-14T01:40:21;9.77;;;3.90;;
18997;SDS011;9632;51.018;4.284;2024-02-14T01:42:47;10.05;;;4.50;;
18997;SDS011;9632;51.018;4.284;2024-02-14T01:45:13;9.85;;;4.13;;
18997;SDS011;9632;51.018;4.284;2024-02-14T01:47:38;9.80;;;3.90;;
18997;SDS011;9632;51.018;4.284;2024-02-14T01:50:07;6.80;;;3.95;;
18997;SDS011;9632;51.018;4.284;2024-02-14T01:52:36;11.13;;;4.45;;
18997;SDS011;9632;51.018;4.284;2024-02-14T01:55:05;7.25;;;4.22;;
18997;SDS011;9632;51.018;4.284;2024-02-14T01:57:32;8.05;;;4.03;;
18997;SDS011;9632;51.018;4.284;2024-02-14T01:59:59;10.07;;;4.63;;
18997;SDS011;9632;51.018;4.284;2024-02-14T02:02:33;11.82;;;4.50;;
18997;SDS011;9632;51.018;4.284;2024-02-14T02:05:01;9.00;;;4.43;;
18997;SDS011;9632;51.018;4.284;2024-02-14T02:07:27;8.52;;;4.45;;
18997;SDS011;9632;51.018;4.284;2024-02-14T02:09:53;8.77;;;4.25;;
18997;SDS011;9632;51.018;4.284;2024-02-14T02:12:19;11.18;;;4.63;;
18997;SDS011;9632;51.018;4.284;2024-02-14T02:14:44;8.45;;;4.78;;
18997;SDS011;9632;51.018;4.284;2024-02-14T02:17:10;9.98;;;4.63;;
18997;SDS011;9632;51.018;4.284;2024-02-14T02:19:36;9.05;;;4.75;;
18997;SDS011;9632;51.018;4.284;2024-02-14T02:22:02;8.50;;;4.60;;
18997;SDS011;9632;51.018;4.284;2024-02-14T02:24:29;9.90;;;4.95;;
18997;SDS011;9632;51.018;4.284;2024-02-14T02:26:55;13.05;;;4.75;;
18997;SDS011;9632;51.018;4.284;2024-02-14T02:29:22;13.32;;;5.30;;
18997;SDS011;9632;51.018;4.284;2024-02-14T02:31:47;8.45;;;4.57;;
18997;SDS011;9632;51.018;4.284;2024-02-14T02:34:13;10.13;;;4.93;;
18997;SDS011;9632;51.018;4.284;2024-02-14T02:36:40;12.20;;;5.10;;
18997;SDS011;9632;51.018;4.284;2024-02-14T02:39:06;11.68;;;4.70;;
18997;SDS011;9632;51.018;4.284;2024-02-14T02:41:32;8.95;;;4.53;;
18997;SDS011;9632;51.018;4.284;2024-02-14T02:43:58;13.20;;;5.28;;
18997;SDS011;9632;51.018;4.284;2024-02-14T02:46:24;10.27;;;4.90;;
18997;SDS011;9632;51.018;4.284;2024-02-14T02:48:51;10.07;;;4.93;;
18997;SDS011;9632;51.018;4.284;2024-02-14T02:51:19;9.27;;;5.03;;
18997;SDS011;9632;51.018;4.284;2024-02-14T02:53:45;9.00;;;4.82;;
18997;SDS011;9632;51.018;4.284;2024-02-14T02:56:12;11.48;;;5.57;;
18997;SDS011;9632;51.018;4.284;2024-02-14T02:58:40;10.25;;;5.38;;
18997;SDS011;9632;51.018;4.284;2024-02-14T03:01:09;11.65;;;5.40;;
18997;SDS011;9632;51.018;4.284;2024-02-14T03:03:35;10.35;;;5.30;;
18997;SDS011;9632;51.018;4.284;2024-02-14T03:06:01;8.93;;;5.07;;
18997;SDS011;9632;51.018;4.284;2024-02-14T03:08:28;9.32;;;5.38;;
18997;SDS011;9632;51.018;4.284;2024-02-14T03:10:55;10.15;;;5.20;;
18997;SDS011;9632;51.018;4.284;2024-02-14T03:13:24;9.73;;;5.15;;
18997;SDS011;9632;51.018;4.284;2024-02-14T03:15:51;9.95;;;5.65;;
18997;SDS011;9632;51.018;4.284;2024-02-14T03:18:17;8.85;;;5.20;;
18997;SDS011;9632;51.018;4.284;2024-02-14T03:20:43;12.20;;;5.50;;
18997;SDS011;9632;51.018;4.284;2024-02-14T03:23:09;10.90;;;5.70;;
18997;SDS011;9632;51.018;4.284;2024-02-14T03:25:35;13.88;;;6.03;;
18997;SDS011;9632;51.018;4.284;2024-02-14T03:28:02;13.65;;;5.95;;
18997;SDS011;9632;51.018;4.284;2024-02-14T03:30:32;9.98;;;6.00;;
18997;SDS011;9632;51.018;4.284;2024-02-14T03:32:58;14.30;;;6.05;;
18997;SDS011;9632;51.018;4.284;2024-02-14T03:35:24;14.18;;;6.95;;
18997;SDS011;9632;51.018;4.284;2024-02-14T03:37:52;14.05;;;5.85;;
18997;SDS011;9632;51.018;4.284;2024-02-14T03:40:18;13.95;;;6.47;;
18997;SDS011;9632;51.018;4.284;2024-02-14T03:42:45;12.57;;;6.78;;
18997;SDS011;9632;51.018;4.284;2024-02-14T03:45:11;11.63;;;6.32;;
18997;SDS011;9632;51.018;4.284;2024-02-14T03:47:37;14.88;;;6.07;;
18997;SDS011;9632;51.018;4.284;2024-02-14T03:50:07;10.93;;;6.20;;
18997;SDS011;9632;51.018;4.284;2024-02-14T03:52:33;10.90;;;5.65;;
18997;SDS011;9632;51.018;4.284;2024-02-14T03:55:02;12.50;;;6.40;;
18997;SDS011;9632;51.018;4.284;2024-02-14T03:57:28;11.93;;;5.88;;
18997;SDS011;9632;51.018;4.284;2024-02-14T03:59:54;11.82;;;6.00;;
18997;SDS011;9632;51.018;4.284;2024-02-14T04:02:21;13.70;;;6.10;;
18997;SDS011;9632;51.018;4.284;2024-02-14T04:04:48;10.80;;;5.22;;
18997;SDS011;9632;51.018;4.284;2024-02-14T04:07:14;13.13;;;6.13;;
18997;SDS011;9632;51.018;4.284;2024-02-14T04:09:40;11.18;;;5.68;;
18997;SDS011;9632;51.018;4.284;2024-02-14T04:12:05;13.35;;;5.53;;
18997;SDS011;9632;51.018;4.284;2024-02-14T04:14:31;9.73;;;5.50;;
18997;SDS011;9632;51.018;4.284;2024-02-14T04:16:57;12.82;;;5.90;;
18997;SDS011;9632;51.018;4.284;2024-02-14T04:19:23;13.20;;;6.13;;
18997;SDS011;9632;51.018;4.284;2024-02-14T04:21:48;14.27;;;6.00;;
18997;SDS011;9632;51.018;4.284;2024-02-14T04:24:15;13.25;;;5.45;;
18997;SDS011;9632;51.018;4.284;2024-02-14T04:26:40;11.15;;;6.20;;
18997;SDS011;9632;51.018;4.284;2024-02-14T04:29:07;11.35;;;6.10;;
18997;SDS011;9632;51.018;4.284;2024-02-14T04:31:33;12.27;;;6.13;;
18997;SDS011;9632;51.018;4.284;2024-02-14T04:33:59;13.18;;;6.13;;
18997;SDS011;9632;51.018;4.284;2024-02-14T04:36:25;13.70;;;6.10;;
18997;SDS011;9632;51.018;4.284;2024-02-14T04:38:51;11.05;;;6.47;;
18997;SDS011;9632;51.018;4.284;2024-02-14T04:41:18;17.00;;;6.50;;
18997;SDS011;9632;51.018;4.284;2024-02-14T04:43:44;13.13;;;6.03;;
18997;SDS011;9632;51.018;4.284;2024-02-14T04:46:09;13.90;;;6.05;;
18997;SDS011;9632;51.018;4.284;2024-02-14T04:48:35;13.90;;;6.55;;
18997;SDS011;9632;51.018;4.284;2024-02-14T04:51:02;13.77;;;5.97;;
18997;SDS011;9632;51.018;4.284;2024-02-14T04:53:29;10.98;;;5.90;;
18997;SDS011;9632;51.018;4.284;2024-02-14T04:55:58;13.13;;;5.57;;
18997;SDS011;9632;51.018;4.284;2024-02-14T04:58:24;13.55;;;6.40;;
18997;SDS011;9632;51.018;4.284;2024-02-14T05:00:51;10.90;;;5.45;;
18997;SDS011;9632;51.018;4.284;2024-02-14T05:03:17;12.73;;;5.85;;
18997;SDS011;9632;51.018;4.284;2024-02-14T05:05:43;9.05;;;5.43;;
18997;SDS011;9632;51.018;4.284;2024-02-14T05:08:09;13.05;;;5.57;;
18997;SDS011;9632;51.018;4.284;2024-02-14T05:10:34;10.48;;;5.15;;
18997;SDS011;9632;51.018;4.284;2024-02-14T05:13:00;11.50;;;5.35;;
18997;SDS011;9632;51.018;4.284;2024-02-14T05:15:26;12.38;;;5.90;;
18997;SDS011;9632;51.018;4.284;2024-02-14T05:17:52;15.82;;;6.00;;
18997;SDS011;9632;51.018;4.284;2024-02-14T05:20:17;14.35;;;6.20;;
18997;SDS011;9632;51.018;4.284;2024-02-14T05:22:43;14.45;;;5.97;;
18997;SDS011;9632;51.018;4.284;2024-02-14T05:25:09;11.35;;;5.60;;
18997;SDS011;9632;51.018;4.284;2024-02-14T05:27:35;10.27;;;5.05;;
18997;SDS011;9632;51.018;4.284;2024-02-14T05:30:04;14.63;;;5.40;;
18997;SDS011;9632;51.018;4.284;2024-02-14T05:32:31;13.18;;;6.05;;
18997;SDS011;9632;51.018;4.284;2024-02-14T05:34:57;10.55;;;5.93;;
18997;SDS011;9632;51.018;4.284;2024-02-14T05:37:23;12.82;;;5.88;;
18997;SDS011;9632;51.018;4.284;2024-02-14T05:39:48;9.90;;;5.85;;
18997;SDS011;9632;51.018;4.284;2024-02-14T05:42:16;16.30;;;6.75;;
18997;SDS011;9632;51.018;4.284;2024-02-14T05:44:42;16.48;;;5.90;;
18997;SDS011;9632;51.018;4.284;2024-02-14T05:47:10;13.65;;;6.20;;
18997;SDS011;9632;51.018;4.284;2024-02-14T05:49:38;16.67;;;5.78;;
18997;SDS011;9632;51.018;4.284;2024-02-14T05:52:04;11.00;;;5.57;;
18997;SDS011;9632;51.018;4.284;2024-02-14T05:54:31;12.30;;;5.50;;
18997;SDS011;9632;51.018;4.284;2024-02-14T05:56:56;14.80;;;6.40;;
18997;SDS011;9632;51.018;4.284;2024-02-14T05:59:22;10.63;;;5.82;;
18997;SDS011;9632;51.018;4.284;2024-02-14T06:01:48;13.32;;;5.85;;
18997;SDS011;9632;51.018;4.284;2024-02-14T06:04:14;11.75;;;5.68;;
18997;SDS011;9632;51.018;4.284;2024-02-14T06:06:40;12.23;;;5.63;;
18997;SDS011;9632;51.018;4.284;2024-02-14T06:09:05;14.52;;;5.72;;
18997;SDS011;9632;51.018;4.284;2024-02-14T06:11:35;13.65;;;5.85;;
18997;SDS011;9632;51.018;4.284;2024-02-14T06:14:04;15.77;;;6.20;;
18997;SDS011;9632;51.018;4.284;2024-02-14T06:16:30;10.38;;;5.85;;
18997;SDS011;9632;51.018;4.284;2024-02-14T06:18:57;12.65;;;5.88;;
18997;SDS011;9632;51.018;4.284;2024-02-14T06:21:22;12.75;;;5.40;;
18997;SDS011;9632;51.018;4.284;2024-02-14T06:23:48;11.60;;;5.60;;
18997;SDS011;9632;51.018;4.284;2024-02-14T06:26:14;10.38;;;5.70;;
18997;SDS011;9632;51.018;4.284;2024-02-14T06:28:39;13.70;;;5.45;;
18997;SDS011;9632;51.018;4.284;2024-02-14T06:31:11;10.90;;;5.20;;
18997;SDS011;9632;51.018;4.284;2024-02-14T06:33:37;12.93;;;5.45;;
18997;SDS011;9632;51.018;4.284;2024-02-14T06:36:03;16.63;;;5.50;;
18997;SDS011;9632;51.018;4.284;2024-02-14T06:38:31;12.95;;;5.63;;
18997;SDS011;9632;51.018;4.284;2024-02-14T06:40:56;14.65;;;5.68;;
18997;SDS011;9632;51.018;4.284;2024-02-14T06:43:22;13.32;;;5.32;;
18997;SDS011;9632;51.018;4.284;2024-02-14T06:45:48;11.10;;;5.53;;
18997;SDS011;9632;51.018;4.284;2024-02-14T06:48:14;15.25;;;5.15;;
18997;SDS011;9632;51.018;4.284;2024-02-14T06:50:39;13.85;;;5.57;;
18997;SDS011;9632;51.018;4.284;2024-02-14T06:53:06;12.20;;;5.53;;
18997;SDS011;9632;51.018;4.284;2024-02-14T06:55:31;14.45;;;6.30;;
18997;SDS011;9632;51.018;4.284;2024-02-14T06:57:58;12.10;;;5.95;;
18997;SDS011;9632;51.018;4.284;2024-02-14T07:00:25;17.65;;;6.30;;
18997;SDS011;9632;51.018;4.284;2024-02-14T07:02:50;13.35;;;5.63;;
18997;SDS011;9632;51.018;4.284;2024-02-14T07:05:16;13.98;;;5.90;;
18997;SDS011;9632;51.018;4.284;2024-02-14T07:07:42;14.75;;;5.63;;
18997;SDS011;9632;51.018;4.284;2024-02-14T07:10:07;14.25;;;5.78;;
18997;SDS011;9632;51.018;4.284;2024-02-14T07:12:34;14.25;;;5.90;;
18997;SDS011;9632;51.018;4.284;2024-02-14T07:15:01;12.00;;;5.35;;
18997;SDS011;9632;51.018;4.284;2024-02-14T07:17:29;13.25;;;5.32;;
18997;SDS011;9632;51.018;4.284;2024-02-14T07:19:55;13.25;;;5.18;;
18997;SDS011;9632;51.018;4.284;2024-02-14T07:22:20;18.13;;;6.20;;
18997;SDS011;9632;51.018;4.284;2024-02-14T07:24:48;10.32;;;5.20;;
18997;SDS011;9632;51.018;4.284;2024-02-14T07:27:14;10.95;;;5.38;;
18997;SDS011;9632;51.018;4.284;2024-02-14T07:29:41;12.82;;;5.57;;
18997;SDS011;9632;51.018;4.284;2024-02-14T07:32:07;11.38;;;5.40;;
18997;SDS011;9632;51.018;4.284;2024-02-14T07:34:33;18.55;;;8.20;;
18997;SDS011;9632;51.018;4.284;2024-02-14T07:36:58;11.40;;;6.30;;
18997;SDS011;9632;51.018;4.284;2024-02-14T07:39:24;21.60;;;8.73;;
18997;SDS011;9632;51.018;4.284;2024-02-14T07:41:59;18.75;;;5.35;;
18997;SDS011;9632;51.018;4.284;2024-02-14T07:44:24;12.00;;;5.53;;
18997;SDS011;9632;51.018;4.284;2024-02-14T07:46:50;15.43;;;5.63;;
18997;SDS011;9632;51.018;4.284;2024-02-14T07:49:17;12.80;;;5.55;;
18997;SDS011;9632;51.018;4.284;2024-02-14T07:51:42;16.13;;;5.50;;
18997;SDS011;9632;51.018;4.284;2024-02-14T07:54:08;12.10;;;5.03;;
18997;SDS011;9632;51.018;4.284;2024-02-14T07:56:34;12.82;;;5.18;;
18997;SDS011;9632;51.018;4.284;2024-02-14T07:58:59;14.20;;;5.05;;
18997;SDS011;9632;51.018;4.284;2024-02-14T08:01:25;11.45;;;5.30;;
18997;SDS011;9632;51.018;4.284;2024-02-14T08:03:51;11.00;;;5.50;;
18997;SDS011;9632;51.018;4.284;2024-02-14T08:06:16;14.93;;;6.28;;
18997;SDS011;9632;51.018;4.284;2024-02-14T08:08:42;17.13;;;5.88;;
18997;SDS011;9632;51.018;4.284;2024-02-14T08:11:09;19.98;;;5.90;;
18997;SDS011;9632;51.018;4.284;2024-02-14T08:13:35;13.32;;;6.22;;
18997;SDS011;9632;51.018;4.284;2024-02-14T08:16:02;14.63;;;6.18;;
18997;SDS011;9632;51.018;4.284;2024-02-14T08:18:27;16.50;;;5.85;;
18997;SDS011;9632;51.018;4.284;2024-02-14T08:20:53;15.40;;;6.57;;
18997;SDS011;9632;51.018;4.284;2024-02-14T08:23:19;14.80;;;6.30;;
18997;SDS011;9632;51.018;4.284;2024-02-14T08:25:45;16.42;;;6.47;;
18997;SDS011;9632;51.018;4.284;2024-02-14T08:28:11;12.88;;;6.47;;
18997;SDS011;9632;51.018;4.284;2024-02-14T08:30:37;14.40;;;6.28;;
18997;SDS011;9632;51.018;4.284;2024-02-14T08:33:03;15.23;;;6.20;;
18997;SDS011;9632;51.018;4.284;2024-02-14T08:35:29;12.48;;;6.05;;
18997;SDS011;9632;51.018;4.284;2024-02-14T08:37:54;14.90;;;6.70;;
18997;SDS011;9632;51.018;4.284;2024-02-14T08:40:20;13.88;;;6.07;;
18997;SDS011;9632;51.018;4.284;2024-02-14T08:42:46;14.70;;;6.35;;
18997;SDS011;9632;51.018;4.284;2024-02-14T08:45:12;14.38;;;5.85;;
18997;SDS011;9632;51.018;4.284;2024-02-14T08:47:38;15.55;;;6.10;;
18997;SDS011;9632;51.018;4.284;2024-02-14T08:50:04;15.20;;;6.55;;
18997;SDS011;9632;51.018;4.284;2024-02-14T08:52:30;18.52;;;6.45;;
18997;SDS011;9632;51.018;4.284;2024-02-14T08:54:56;13.20;;;6.10;;
18997;SDS011;9632;51.018;4.284;2024-02-14T08:57:21;18.45;;;6.28;;
18997;SDS011;9632;51.018;4.284;2024-02-14T08:59:48;17.35;;;6.00;;
18997;SDS011;9632;51.018;4.284;2024-02-14T09:02:14;14.43;;;6.50;;
18997;SDS011;9632;51.018;4.284;2024-02-14T09:04:41;15.13;;;6.57;;
18997;SDS011;9632;51.018;4.284;2024-02-14T09:07:07;15.32;;;6.47;;
18997;SDS011;9632;51.018;4.284;2024-02-14T09:09:33;12.40;;;5.80;;
18997;SDS011;9632;51.018;4.284;2024-02-14T09:11:59;14.10;;;5.68;;
18997;SDS011;9632;51.018;4.284;2024-02-14T09:14:30;15.73;;;5.93;;
18997;SDS011;9632;51.018;4.284;2024-02-14T09:16:56;12.18;;;5.68;;
18997;SDS011;9632;51.018;4.284;2024-02-14T09:19:23;14.18;;;5.60;;
18997;SDS011;9632;51.018;4.284;2024-02-14T09:21:50;13.02;;;5.70;;
18997;SDS011;9632;51.018;4.284;2024-02-14T09:24:16;14.63;;;5.70;;
18997;SDS011;9632;51.018;4.284;2024-02-14T09:26:42;13.80;;;5.65;;
18997;SDS011;9632;51.018;4.284;2024-02-14T09:29:08;9.65;;;5.43;;
18997;SDS011;9632;51.018;4.284;2024-02-14T09:31:36;13.55;;;5.60;;
18997;SDS011;9632;51.018;4.284;2024-02-14T09:34:02;14.05;;;5.88;;
18997;SDS011;9632;51.018;4.284;2024-02-14T09:36:27;12.20;;;5.07;;
18997;SDS011;9632;51.018;4.284;2024-02-14T09:38:54;10.65;;;4.63;;
18997;SDS011;9632;51.018;4.284;2024-02-14T09:43:48;8.27;;;4.82;;
18997;SDS011;9632;51.018;4.284;2024-02-14T09:46:14;11.07;;;4.70;;
18997;SDS011;9632;51.018;4.284;2024-02-14T09:48:42;11.98;;;4.97;;
18997;SDS011;9632;51.018;4.284;2024-02-14T09:51:11;9.52;;;4.82;;
18997;SDS011;9632;51.018;4.284;2024-02-14T09:53:38;9.77;;;4.65;;
18997;SDS011;9632;51.018;4.284;2024-02-14T09:56:05;8.38;;;4.78;;
18997;SDS011;9632;51.018;4.284;2024-02-14T09:58:33;12.27;;;3.95;;
18997;SDS011;9632;51.018;4.284;2024-02-14T10:01:00;8.85;;;4.50;;
18997;SDS011;9632;51.018;4.284;2024-02-14T10:03:25;10.40;;;4.65;;
18997;SDS011;9632;51.018;4.284;2024-02-14T10:05:51;9.73;;;4.90;;
18997;SDS011;9632;51.018;4.284;2024-02-14T10:08:17;8.93;;;4.40;;
18997;SDS011;9632;51.018;4.284;2024-02-14T10:10:43;7.93;;;4.82;;
18997;SDS011;9632;51.018;4.284;2024-02-14T10:13:10;8.50;;;4.50;;
18997;SDS011;9632;51.018;4.284;2024-02-14T10:15:36;11.38;;;4.80;;
18997;SDS011;9632;51.018;4.284;2024-02-14T10:18:04;9.57;;;4.50;;
18997;SDS011;9632;51.018;4.284;2024-02-14T10:20:30;10.20;;;4.60;;
18997;SDS011;9632;51.018;4.284;2024-02-14T10:23:02;6.97;;;4.50;;
18997;SDS011;9632;51.018;4.284;2024-02-14T10:25:28;8.85;;;4.35;;
18997;SDS011;9632;51.018;4.284;2024-02-14T10:28:04;7.38;;;4.28;;
18997;SDS011;9632;51.018;4.284;2024-02-14T10:30:33;7.63;;;3.75;;
18997;SDS011;9632;51.018;4.284;2024-02-14T10:33:03;6.45;;;4.00;;
18997;SDS011;9632;51.018;4.284;2024-02-14T10:35:30;7.05;;;4.13;;
18997;SDS011;9632;51.018;4.284;2024-02-14T10:37:57;6.80;;;3.80;;
18997;SDS011;9632;51.018;4.284;2024-02-14T10:40:30;7.75;;;4.05;;
18997;SDS011;9632;51.018;4.284;2024-02-14T10:42:57;6.75;;;3.55;;
18997;SDS011;9632;51.018;4.284;2024-02-14T10:45:24;7.50;;;3.80;;
18997;SDS011;9632;51.018;4.284;2024-02-14T10:47:50;6.47;;;4.07;;
18997;SDS011;9632;51.018;4.284;2024-02-14T10:50:17;6.57;;;3.70;;
18997;SDS011;9632;51.018;4.284;2024-02-14T10:52:47;5.90;;;3.72;;
18997;SDS011;9632;51.018;4.284;2024-02-14T10:55:14;7.65;;;3.85;;
18997;SDS011;9632;51.018;4.284;2024-02-14T10:57:43;5.47;;;3.92;;
18997;SDS011;9632;51.018;4.284;2024-02-14T11:00:10;5.00;;;3.83;;
18997;SDS011;9632;51.018;4.284;2024-02-14T11:02:40;6.53;;;4.10;;
18997;SDS011;9632;51.018;4.284;2024-02-14T11:05:15;5.07;;;3.70;;
18997;SDS011;9632;51.018;4.284;2024-02-14T11:07:45;8.57;;;3.90;;
18997;SDS011;9632;51.018;4.284;2024-02-14T11:10:17;6.90;;;4.00;;
18997;SDS011;9632;51.018;4.284;2024-02-14T11:12:46;6.82;;;3.83;;
18997;SDS011;9632;51.018;4.284;2024-02-14T11:15:18;6.45;;;3.90;;
18997;SDS011;9632;51.018;4.284;2024-02-14T11:17:46;5.38;;;3.67;;
18997;SDS011;9632;51.018;4.284;2024-02-14T11:22:56;6.93;;;3.97;;
18997;SDS011;9632;51.018;4.284;2024-02-14T11:25:24;5.05;;;3.60;;
18997;SDS011;9632;51.018;4.284;2024-02-14T11:27:54;5.25;;;3.40;;
18997;SDS011;9632;51.018;4.284;2024-02-14T11:30:34;6.28;;;3.63;;
18997;SDS011;9632;51.018;4.284;2024-02-14T11:33:16;7.10;;;4.07;;
18997;SDS011;9632;51.018;4.284;2024-02-14T11:35:43;8.50;;;4.18;;
18997;SDS011;9632;51.018;4.284;2024-02-14T11:38:10;7.60;;;3.53;;
18997;SDS011;9632;51.018;4.284;2024-02-14T11:40:38;7.88;;;4.30;;
18997;SDS011;9632;51.018;4.284;2024-02-14T11:43:10;7.57;;;4.35;;
18997;SDS011;9632;51.018;4.284;2024-02-14T11:45:37;7.97;;;4.15;;
18997;SDS011;9632;51.018;4.284;2024-02-14T11:48:07;13.02;;;4.50;;
18997;SDS011;9632;51.018;4.284;2024-02-14T11:50:42;9.00;;;5.10;;
18997;SDS011;9632;51.018;4.284;2024-02-14T11:53:12;11.25;;;6.22;;
18997;SDS011;9632;51.018;4.284;2024-02-14T11:55:42;10.82;;;5.10;;
18997;SDS011;9632;51.018;4.284;2024-02-14T11:58:11;9.40;;;5.20;;
18997;SDS011;9632;51.018;4.284;2024-02-14T12:00:38;7.47;;;4.63;;
18997;SDS011;9632;51.018;4.284;2024-02-14T12:03:10;9.90;;;5.38;;
18997;SDS011;9632;51.018;4.284;2024-02-14T12:05:44;12.23;;;5.78;;
18997;SDS011;9632;51.018;4.284;2024-02-14T12:08:12;9.95;;;5.10;;
18997;SDS011;9632;51.018;4.284;2024-02-14T12:10:38;8.20;;;5.22;;
18997;SDS011;9632;51.018;4.284;2024-02-14T12:13:10;8.80;;;5.07;;
18997;SDS011;9632;51.018;4.284;2024-02-14T12:15:41;10.57;;;5.50;;
18997;SDS011;9632;51.018;4.284;2024-02-14T12:18:09;12.23;;;5.25;;
18997;SDS011;9632;51.018;4.284;2024-02-14T12:20:38;9.88;;;5.18;;
18997;SDS011;9632;51.018;4.284;2024-02-14T12:23:05;12.15;;;5.32;;
18997;SDS011;9632;51.018;4.284;2024-02-14T12:25:31;12.18;;;4.80;;
18997;SDS011;9632;51.018;4.284;2024-02-14T12:27:57;10.52;;;5.00;;
18997;SDS011;9632;51.018;4.284;2024-02-14T12:30:23;10.30;;;5.00;;
18997;SDS011;9632;51.018;4.284;2024-02-14T12:33:22;10.05;;;5.20;;
18997;SDS011;9632;51.018;4.284;2024-02-14T12:35:49;8.82;;;4.57;;
18997;SDS011;9632;51.018;4.284;2024-02-14T12:38:17;7.97;;;4.40;;
18997;SDS011;9632;51.018;4.284;2024-02-14T12:40:45;12.30;;;4.60;;
18997;SDS011;9632;51.018;4.284;2024-02-14T12:43:12;8.65;;;4.68;;
18997;SDS011;9632;51.018;4.284;2024-02-14T12:45:39;14.20;;;5.38;;
18997;SDS011;9632;51.018;4.284;2024-02-14T12:48:06;12.10;;;4.93;;
18997;SDS011;9632;51.018;4.284;2024-02-14T12:50:33;12.15;;;4.72;;
18997;SDS011;9632;51.018;4.284;2024-02-14T12:53:03;12.73;;;5.07;;
18997;SDS011;9632;51.018;4.284;2024-02-14T12:55:29;8.35;;;4.55;;
18997;SDS011;9632;51.018;4.284;2024-02-14T12:57:55;12.82;;;5.10;;
18997;SDS011;9632;51.018;4.284;2024-02-14T13:00:22;10.52;;;5.25;;
18997;SDS011;9632;51.018;4.284;2024-02-14T13:02:49;13.75;;;4.85;;
18997;SDS011;9632;51.018;4.284;2024-02-14T13:05:15;10.00;;;5.10;;
18997;SDS011;9632;51.018;4.284;2024-02-14T13:07:42;9.90;;;4.40;;
18997;SDS011;9632;51.018;4.284;2024-02-14T13:10:08;13.05;;;4.95;;
18997;SDS011;9632;51.018;4.284;2024-02-14T13:12:39;8.65;;;4.70;;
18997;SDS011;9632;51.018;4.284;2024-02-14T13:15:05;10.45;;;4.65;;
18997;SDS011;9632;51.018;4.284;2024-02-14T13:17:31;7.35;;;4.15;;
18997;SDS011;9632;51.018;4.284;2024-02-14T13:19:57;10.30;;;4.40;;
18997;SDS011;9632;51.018;4.284;2024-02-14T13:22:24;12.93;;;4.22;;
18997;SDS011;9632;51.018;4.284;2024-02-14T13:24:51;9.70;;;4.30;;
18997;SDS011;9632;51.018;4.284;2024-02-14T13:27:16;9.98;;;4.25;;
18997;SDS011;9632;51.018;4.284;2024-02-14T13:29:42;7.15;;;3.55;;
18997;SDS011;9632;51.018;4.284;2024-02-14T13:32:08;9.57;;;3.70;;
18997;SDS011;9632;51.018;4.284;2024-02-14T13:34:34;6.03;;;3.78;;
18997;SDS011;9632;51.018;4.284;2024-02-14T13:37:00;6.65;;;3.55;;
18997;SDS011;9632;51.018;4.284;2024-02-14T13:39:27;8.77;;;3.38;;
18997;SDS011;9632;51.018;4.284;2024-02-14T13:41:53;7.53;;;3.30;;
18997;SDS011;9632;51.018;4.284;2024-02-14T13:44:19;6.93;;;2.83;;
18997;SDS011;9632;51.018;4.284;2024-02-14T13:46:45;10.20;;;3.22;;
18997;SDS011;9632;51.018;4.284;2024-02-14T13:49:11;10.32;;;3.40;;
18997;SDS011;9632;51.018;4.284;2024-02-14T13:51:41;7.40;;;2.92;;
18997;SDS011;9632;51.018;4.284;2024-02-14T13:54:07;6.97;;;3.20;;
18997;SDS011;9632;51.018;4.284;2024-02-14T13:56:34;5.85;;;3.35;;
18997;SDS011;9632;51.018;4.284;2024-02-14T13:59:00;5.43;;;3.05;;
18997;SDS011;9632;51.018;4.284;2024-02-14T14:01:25;10.05;;;3.15;;
18997;SDS011;9632;51.018;4.284;2024-02-14T14:03:51;6.93;;;3.10;;
18997;SDS011;9632;51.018;4.284;2024-02-14T14:06:19;6.30;;;2.85;;
18997;SDS011;9632;51.018;4.284;2024-02-14T14:08:45;8.77;;;3.03;;
18997;SDS011;9632;51.018;4.284;2024-02-14T14:11:11;6.43;;;2.90;;
18997;SDS011;9632;51.018;4.284;2024-02-14T14:13:37;7.32;;;3.20;;
18997;SDS011;9632;51.018;4.284;2024-02-14T14:16:03;6.47;;;2.50;;
18997;SDS011;9632;51.018;4.284;2024-02-14T14:18:31;7.25;;;3.13;;
18997;SDS011;9632;51.018;4.284;2024-02-14T14:20:57;8.23;;;2.72;;
18997;SDS011;9632;51.018;4.284;2024-02-14T14:23:23;8.35;;;3.00;;
18997;SDS011;9632;51.018;4.284;2024-02-14T14:25:49;6.47;;;2.75;;
18997;SDS011;9632;51.018;4.284;2024-02-14T14:28:15;7.65;;;2.72;;
18997;SDS011;9632;51.018;4.284;2024-02-14T14:30:42;11.10;;;3.15;;
18997;SDS011;9632;51.018;4.284;2024-02-14T14:33:09;6.05;;;2.65;;
18997;SDS011;9632;51.018;4.284;2024-02-14T14:35:35;7.88;;;2.42;;
18997;SDS011;9632;51.018;4.284;2024-02-14T14:38:01;8.85;;;3.28;;
18997;SDS011;9632;51.018;4.284;2024-02-14T14:40:31;9.13;;;3.10;;
18997;SDS011;9632;51.018;4.284;2024-02-14T14:42:57;6.80;;;2.70;;
18997;SDS011;9632;51.018;4.284;2024-02-14T14:45:22;6.63;;;2.85;;
18997;SDS011;9632;51.018;4.284;2024-02-14T14:47:48;6.40;;;2.95;;
18997;SDS011;9632;51.018;4.284;2024-02-14T14:50:17;11.23;;;3.20;;
18997;SDS011;9632;51.018;4.284;2024-02-14T14:52:44;10.35;;;3.15;;
18997;SDS011;9632;51.018;4.284;2024-02-14T14:55:10;6.82;;;2.95;;